Time;durP1;ratioP1;P1;durP2;ratioP2;P2;SDS_P1;SDS_P2;PMS_P1;PMS_P2;Temp;Humidity;BMP_temperature;BMP_pressure;BME280_temperature;BME280_humidity;BME280_pressure;Samples;Min_cycle;Max_cycle;Signal;HPM_P1;HPM_P2
2021/09/18 00:02:01;;;;;;;6.50;5.90;;;18.30;59.70;;;;;;5011534;28;20645;-47
2021/09/18 00:04:27;;;;;;;7.83;7.20;;;18.30;60.00;;;;;;5012391;28;20197;-47
2021/09/18 00:06:52;;;;;;;8.90;6.97;;;18.20;60.50;;;;;;5013066;28;20194;-49
2021/09/18 00:09:18;;;;;;;6.50;5.90;;;18.10;61.80;;;;;;4994938;28;20657;-47
2021/09/18 00:11:44;;;;;;;6.83;6.23;;;18.00;61.90;;;;;;4993527;28;20218;-48
2021/09/18 00:14:10;;;;;;;6.13;5.60;;;17.90;62.40;;;;;;4992116;28;20702;-46
2021/09/18 00:16:36;;;;;;;6.47;5.87;;;17.80;62.70;;;;;;4993386;28;20506;-46
2021/09/18 00:19:02;;;;;;;5.40;4.90;;;17.80;62.80;;;;;;4992686;28;20540;-46
2021/09/18 00:21:27;;;;;;;5.97;5.37;;;17.80;63.10;;;;;;4993332;28;20282;-46
2021/09/18 00:23:54;;;;;;;7.10;6.00;;;17.90;62.80;;;;;;4992208;28;20194;-49
2021/09/18 00:26:20;;;;;;;6.10;5.60;;;17.90;62.90;;;;;;4992690;28;20682;-51
2021/09/18 00:28:46;;;;;;;9.23;6.07;;;17.70;63.30;;;;;;4991561;28;20436;-48
2021/09/18 00:31:11;;;;;;;7.37;6.77;;;17.40;64.10;;;;;;4993180;28;20430;-50
2021/09/18 00:33:37;;;;;;;6.07;5.67;;;17.10;64.90;;;;;;5001986;28;20190;-51
2021/09/18 00:36:03;;;;;;;6.67;6.07;;;16.90;65.80;;;;;;5012821;28;20217;-51
2021/09/18 00:38:28;;;;;;;6.03;5.53;;;17.00;65.90;;;;;;5012307;28;20649;-46
2021/09/18 00:40:54;;;;;;;6.83;6.00;;;17.20;65.20;;;;;;5011385;28;20252;-51
2021/09/18 00:43:21;;;;;;;7.50;6.00;;;17.40;64.40;;;;;;5011584;28;20190;-49
2021/09/18 00:45:47;;;;;;;6.90;6.20;;;17.40;63.50;;;;;;5012200;28;20712;-46
2021/09/18 00:48:12;;;;;;;5.80;5.30;;;17.50;62.80;;;;;;5011887;28;20428;-52
2021/09/18 00:50:38;;;;;;;7.07;6.37;;;17.50;62.30;;;;;;5011665;28;20194;-48
2021/09/18 00:53:04;;;;;;;6.20;5.17;;;17.60;62.30;;;;;;5009833;28;20658;-48
2021/09/18 00:55:30;;;;;;;9.00;6.47;;;17.60;62.10;;;;;;5012361;28;20197;-51
2021/09/18 00:57:56;;;;;;;5.50;5.00;;;17.60;62.20;;;;;;4995921;28;20238;-49
2021/09/18 01:00:22;;;;;;;6.50;5.90;;;17.60;61.90;;;;;;5003230;28;20491;-49
2021/09/18 01:02:48;;;;;;;5.90;5.30;;;17.70;62.90;;;;;;5011490;28;20622;-52
2021/09/18 01:05:14;;;;;;;5.97;5.37;;;17.60;62.10;;;;;;5011722;28;20537;-50
2021/09/18 01:07:40;;;;;;;5.63;5.13;;;17.60;62.20;;;;;;5007689;28;20256;-50
2021/09/18 01:10:08;;;;;;;5.73;5.23;;;17.60;62.40;;;;;;4992081;28;20195;-48
2021/09/18 01:12:34;;;;;;;6.13;5.50;;;17.60;62.40;;;;;;4992127;28;20458;-50
2021/09/18 01:14:59;;;;;;;4.83;4.17;;;17.70;63.00;;;;;;4991529;28;20480;-47
2021/09/18 01:17:26;;;;;;;7.90;5.43;;;17.60;62.40;;;;;;4992517;28;20942;-51
2021/09/18 01:19:52;;;;;;;6.03;5.50;;;17.70;62.60;;;;;;4990073;28;20249;-46
2021/09/18 01:22:24;;;;;;;5.07;4.67;;;17.70;62.50;;;;;;4992128;28;20465;-46
2021/09/18 01:24:50;;;;;;;5.90;5.40;;;17.70;62.30;;;;;;4991299;28;20293;-47
2021/09/18 01:27:15;;;;;;;5.60;5.10;;;17.60;62.20;;;;;;4992216;28;20517;-46
2021/09/18 01:29:43;;;;;;;5.33;4.83;;;17.60;62.40;;;;;;4991667;28;20203;-46
2021/09/18 01:32:09;;;;;;;7.10;5.13;;;17.60;62.40;;;;;;4991994;28;20194;-47
2021/09/18 01:34:35;;;;;;;6.30;5.43;;;17.50;62.70;;;;;;5009229;28;20429;-46
2021/09/18 01:37:00;;;;;;;5.40;5.00;;;17.40;63.00;;;;;;5011824;28;20193;-46
2021/09/18 01:39:27;;;;;;;6.20;5.70;;;17.50;63.00;;;;;;5011528;28;20684;-49
2021/09/18 01:41:52;;;;;;;6.07;5.67;;;17.40;63.30;;;;;;5011964;28;20209;-45
2021/09/18 01:44:18;;;;;;;5.20;4.80;;;17.30;63.70;;;;;;5010818;28;20432;-47
2021/09/18 01:46:44;;;;;;;6.50;5.07;;;17.10;64.30;;;;;;5009957;28;20194;-47
2021/09/18 01:49:18;;;;;;;5.00;4.63;;;17.00;64.70;;;;;;5011201;28;20451;-46
2021/09/18 01:52:06;;;;;;;6.40;5.77;;;16.90;65.20;;;;;;5011817;28;20189;-46
2021/09/18 01:54:34;;;;;;;5.57;5.00;;;17.00;64.70;;;;;;5010852;28;20791;-46
2021/09/18 01:57:05;;;;;;;7.40;5.13;;;17.00;64.60;;;;;;5003546;28;20869;-47
2021/09/18 01:59:31;;;;;;;5.60;5.10;;;16.90;65.30;;;;;;4994836;28;20991;-47
2021/09/18 02:01:56;;;;;;;5.60;5.10;;;16.90;65.30;;;;;;5014758;28;20440;-46
2021/09/18 02:04:22;;;;;;;6.37;5.57;;;16.70;65.80;;;;;;5014402;28;20208;-47
2021/09/18 02:06:47;;;;;;;6.30;5.70;;;16.80;65.50;;;;;;5015426;28;20273;-46
2021/09/18 02:09:13;;;;;;;5.60;5.10;;;16.80;65.40;;;;;;4997700;28;20274;-46
2021/09/18 02:11:39;;;;;;;5.73;5.10;;;16.70;65.70;;;;;;4995924;28;20186;-47
2021/09/18 02:14:04;;;;;;;8.70;5.70;;;16.70;66.30;;;;;;4992985;28;20605;-46
2021/09/18 02:16:30;;;;;;;6.03;5.53;;;16.60;65.90;;;;;;4995629;28;20202;-47
2021/09/18 02:18:55;;;;;;;6.00;5.40;;;16.60;66.00;;;;;;4995079;28;20240;-46
2021/09/18 02:21:21;;;;;;;6.90;5.93;;;16.60;66.00;;;;;;4995282;28;20223;-47
2021/09/18 02:23:48;;;;;;;8.10;5.70;;;16.70;66.10;;;;;;4994573;28;20206;-46
2021/09/18 02:26:14;;;;;;;5.97;5.37;;;16.70;65.50;;;;;;4995653;28;20523;-47
2021/09/18 02:28:40;;;;;;;7.03;6.37;;;16.60;66.00;;;;;;4995071;28;20472;-48
2021/09/18 02:31:05;;;;;;;5.80;5.20;;;16.60;65.90;;;;;;4995610;28;20610;-46
2021/09/18 02:33:31;;;;;;;8.80;5.73;;;16.70;65.40;;;;;;5003469;28;20186;-46
2021/09/18 02:35:57;;;;;;;6.07;5.57;;;16.70;65.20;;;;;;5015241;28;20190;-47
2021/09/18 02:38:22;;;;;;;6.43;5.50;;;16.60;65.90;;;;;;5014246;28;20556;-48
2021/09/18 02:40:52;;;;;;;5.97;5.37;;;16.40;66.50;;;;;;5013190;28;20308;-47
2021/09/18 02:43:18;;;;;;;6.40;5.80;;;16.30;66.70;;;;;;5013655;28;20212;-46
2021/09/18 02:45:44;;;;;;;7.50;6.67;;;16.20;66.90;;;;;;5014577;28;20441;-48
2021/09/18 02:48:09;;;;;;;8.50;6.53;;;16.20;67.30;;;;;;5014067;28;20464;-46
2021/09/18 02:50:36;;;;;;;7.80;7.17;;;16.30;67.20;;;;;;5014578;28;20697;-47
2021/09/18 02:53:02;;;;;;;7.97;6.40;;;16.30;66.90;;;;;;5013394;28;20205;-46
2021/09/18 02:55:27;;;;;;;8.87;6.90;;;16.30;66.80;;;;;;5014592;28;20436;-46
2021/09/18 02:57:53;;;;;;;6.87;6.27;;;16.20;67.30;;;;;;4997038;28;20496;-46
2021/09/18 03:00:19;;;;;;;6.57;5.97;;;16.30;67.20;;;;;;5004956;28;20281;-46
2021/09/18 03:02:45;;;;;;;7.40;6.43;;;16.20;67.20;;;;;;5013791;28;20213;-46
2021/09/18 03:05:12;;;;;;;6.73;6.13;;;16.10;67.00;;;;;;5013415;28;20421;-47
2021/09/18 03:07:37;;;;;;;7.00;6.40;;;16.10;67.20;;;;;;5009651;28;20429;-46
2021/09/18 03:10:05;;;;;;;6.60;5.97;;;16.10;67.50;;;;;;4993937;28;20422;-46
2021/09/18 03:12:31;;;;;;;7.47;6.67;;;16.00;67.70;;;;;;4994000;28;20566;-46
2021/09/18 03:14:57;;;;;;;6.90;6.17;;;16.00;67.40;;;;;;4993696;28;20429;-47
2021/09/18 03:17:22;;;;;;;6.63;6.03;;;15.80;68.50;;;;;;4994619;28;20198;-46
2021/09/18 03:19:51;;;;;;;6.43;5.93;;;15.90;69.40;;;;;;4993990;28;21004;-47
2021/09/18 03:22:17;;;;;;;6.83;5.57;;;16.00;68.00;;;;;;4994277;28;20199;-46
2021/09/18 03:24:42;;;;;;;7.47;5.50;;;16.20;67.40;;;;;;4993497;28;20787;-46
2021/09/18 03:27:08;;;;;;;7.57;6.17;;;16.30;67.00;;;;;;4994417;28;20441;-46
2021/09/18 03:29:34;;;;;;;6.13;5.60;;;16.40;66.30;;;;;;4993587;28;20318;-47
2021/09/18 03:31:59;;;;;;;6.63;6.03;;;16.50;65.60;;;;;;4992461;28;20289;-47
2021/09/18 03:34:25;;;;;;;5.63;5.13;;;16.60;65.20;;;;;;5010094;28;20216;-47
2021/09/18 03:36:51;;;;;;;7.37;5.40;;;16.50;64.50;;;;;;5013700;28;20661;-46
2021/09/18 03:39:16;;;;;;;6.43;5.80;;;16.40;65.30;;;;;;5013065;28;20198;-47
2021/09/18 03:41:42;;;;;;;6.20;5.60;;;16.40;65.40;;;;;;5013744;28;20234;-47
2021/09/18 03:44:07;;;;;;;5.77;5.27;;;16.50;65.10;;;;;;5012798;28;20198;-45
2021/09/18 03:46:33;;;;;;;5.97;5.40;;;16.60;64.70;;;;;;5013488;28;20198;-46
2021/09/18 03:48:59;;;;;;;6.50;5.90;;;16.60;64.30;;;;;;5012939;28;20755;-46
2021/09/18 03:51:24;;;;;;;7.57;4.90;;;16.60;63.90;;;;;;5011667;28;20249;-46
2021/09/18 03:53:50;;;;;;;6.47;5.87;;;16.60;63.80;;;;;;5012705;28;20198;-46
2021/09/18 03:56:15;;;;;;;6.20;5.70;;;16.60;63.60;;;;;;5010515;28;20208;-46
2021/09/18 03:58:41;;;;;;;5.50;5.10;;;16.70;63.60;;;;;;4991327;28;20235;-46
2021/09/18 04:01:07;;;;;;;6.20;5.10;;;16.70;63.20;;;;;;5010299;28;20249;-47
2021/09/18 04:03:32;;;;;;;7.13;5.57;;;16.50;63.50;;;;;;5012550;28;20280;-49
2021/09/18 04:05:58;;;;;;;5.67;5.27;;;16.30;64.30;;;;;;5012981;28;20198;-45
2021/09/18 04:08:24;;;;;;;5.47;5.00;;;16.00;65.10;;;;;;5002790;28;20186;-46
2021/09/18 04:10:49;;;;;;;6.33;5.27;;;15.80;66.30;;;;;;4993415;28;20190;-46
2021/09/18 04:13:15;;;;;;;8.10;5.53;;;15.70;66.90;;;;;;4992930;28;20270;-46
2021/09/18 04:15:40;;;;;;;7.83;6.10;;;15.70;66.80;;;;;;4993436;28;20198;-46
2021/09/18 04:18:06;;;;;;;37.10;6.40;;;15.60;66.60;;;;;;4992663;28;20680;-47
2021/09/18 04:20:32;;;;;;;31.93;6.73;;;15.50;67.50;;;;;;4993258;28;20321;-45
2021/09/18 04:22:57;;;;;;;17.37;5.80;;;15.50;67.80;;;;;;4992673;28;20198;-46
2021/09/18 04:25:23;;;;;;;13.60;5.90;;;15.60;67.50;;;;;;4990656;28;20195;-46
2021/09/18 04:27:48;;;;;;;10.63;6.73;;;15.70;67.00;;;;;;4992676;28;20234;-46
2021/09/18 04:30:14;;;;;;;27.43;6.67;;;15.70;66.90;;;;;;4992823;28;20195;-46
2021/09/18 04:32:40;;;;;;;10.90;5.70;;;15.80;66.50;;;;;;4992861;28;20199;-50
2021/09/18 04:35:06;;;;;;;13.37;6.03;;;15.80;66.80;;;;;;4992833;28;20274;-46
2021/09/18 04:37:31;;;;;;;13.80;5.70;;;15.80;66.70;;;;;;4993066;28;20556;-46
2021/09/18 04:39:57;;;;;;;21.23;6.20;;;15.80;66.60;;;;;;4992295;28;20564;-46
2021/09/18 04:42:23;;;;;;;7.07;5.73;;;15.50;67.10;;;;;;4993006;28;20222;-48
2021/09/18 04:44:48;;;;;;;5.83;5.33;;;15.50;67.50;;;;;;4992055;28;20225;-47
2021/09/18 04:47:14;;;;;;;10.43;5.70;;;15.60;67.70;;;;;;4992926;28;20187;-46
2021/09/18 04:49:40;;;;;;;6.20;5.60;;;15.70;67.30;;;;;;4992154;28;20194;-46
2021/09/18 04:52:06;;;;;;;17.93;6.20;;;15.60;67.10;;;;;;5010763;28;20194;-46
2021/09/18 04:54:31;;;;;;;33.67;7.40;;;15.60;67.10;;;;;;5011314;28;20681;-45
2021/09/18 04:56:57;;;;;;;8.03;5.67;;;15.60;67.40;;;;;;5003310;28;20418;-46
2021/09/18 04:59:23;;;;;;;6.07;5.00;;;15.50;67.10;;;;;;4994600;28;20242;-46
2021/09/18 05:01:48;;;;;;;46.43;7.63;;;15.60;67.70;;;;;;5012478;28;20251;-48
2021/09/18 05:04:14;;;;;;;6.27;5.67;;;15.60;67.20;;;;;;5011483;28;20186;-46
2021/09/18 05:06:39;;;;;;;28.10;5.87;;;15.50;67.90;;;;;;5011992;28;20198;-47
2021/09/18 05:09:05;;;;;;;15.77;5.80;;;15.40;68.20;;;;;;4996305;28;20193;-47
2021/09/18 05:11:31;;;;;;;7.40;5.07;;;15.40;68.20;;;;;;4992621;28;20195;-46
2021/09/18 05:13:57;;;;;;;21.17;6.20;;;15.40;68.20;;;;;;4991489;28;20199;-47
2021/09/18 05:16:24;;;;;;;15.53;5.27;;;15.40;68.50;;;;;;4992268;28;20201;-46
2021/09/18 05:18:49;;;;;;;8.73;5.80;;;15.30;68.60;;;;;;4990232;28;20429;-46
2021/09/18 05:21:15;;;;;;;5.60;4.90;;;15.20;69.40;;;;;;4992309;28;21067;-46
2021/09/18 05:23:41;;;;;;;7.03;5.40;;;15.20;69.30;;;;;;4991286;28;20187;-46
2021/09/18 05:26:07;;;;;;;16.27;5.90;;;15.30;69.30;;;;;;4992330;28;20425;-47
2021/09/18 05:28:32;;;;;;;6.23;5.63;;;15.30;69.10;;;;;;4991587;28;20269;-46
2021/09/18 05:30:58;;;;;;;9.30;6.03;;;15.30;68.90;;;;;;4992334;28;20199;-46
2021/09/18 05:33:23;;;;;;;8.30;6.93;;;15.30;68.90;;;;;;4991169;28;20195;-46
2021/09/18 05:35:49;;;;;;;6.17;5.60;;;15.40;68.90;;;;;;4993648;28;20602;-48
2021/09/18 05:38:15;;;;;;;10.37;6.10;;;15.50;68.60;;;;;;4995788;28;20229;-46
2021/09/18 05:40:42;;;;;;;9.47;6.43;;;15.60;68.30;;;;;;4996123;28;20222;-46
2021/09/18 05:43:08;;;;;;;14.30;6.97;;;15.60;68.30;;;;;;4995304;28;20201;-46
2021/09/18 05:45:33;;;;;;;11.30;5.80;;;15.70;68.20;;;;;;4994474;28;20521;-46
2021/09/18 05:48:02;;;;;;;32.90;6.77;;;15.60;67.90;;;;;;4995497;28;20202;-47
2021/09/18 05:50:28;;;;;;;14.83;5.60;;;15.50;68.00;;;;;;5003260;28;20190;-46
2021/09/18 05:52:53;;;;;;;8.90;5.20;;;15.30;69.30;;;;;;5014768;28;20451;-47
2021/09/18 05:55:19;;;;;;;17.47;6.90;;;14.90;70.10;;;;;;5015633;28;20189;-48
2021/09/18 05:57:44;;;;;;;6.47;5.70;;;14.80;71.70;;;;;;4999663;28;20266;-46
2021/09/18 06:00:10;;;;;;;9.20;5.80;;;15.10;71.50;;;;;;5005027;28;20685;-46
2021/09/18 06:02:37;;;;;;;6.80;6.30;;;15.20;70.60;;;;;;5015479;28;20201;-46
2021/09/18 06:05:02;;;;;;;5.70;5.07;;;15.40;70.40;;;;;;5015069;28;20194;-46
2021/09/18 06:07:28;;;;;;;7.13;6.43;;;15.60;69.70;;;;;;5012642;28;21014;-47
2021/09/18 06:09:54;;;;;;;7.80;5.90;;;15.70;69.40;;;;;;4995191;28;20209;-46
2021/09/18 06:12:19;;;;;;;6.57;6.00;;;15.80;69.60;;;;;;4994260;28;20205;-46
2021/09/18 06:14:45;;;;;;;9.23;6.43;;;15.80;69.30;;;;;;4994544;28;20663;-46
2021/09/18 06:17:10;;;;;;;7.73;5.60;;;16.00;69.20;;;;;;4995621;28;20195;-46
2021/09/18 06:19:36;;;;;;;7.60;6.33;;;16.20;68.80;;;;;;4995148;28;20206;-46
2021/09/18 06:22:01;;;;;;;8.47;5.80;;;16.40;68.50;;;;;;4995545;28;20190;-46
2021/09/18 06:24:28;;;;;;;6.87;5.07;;;16.10;67.70;;;;;;4994539;28;20259;-46
2021/09/18 06:26:54;;;;;;;6.07;5.67;;;16.00;68.80;;;;;;4995626;28;20201;-47
2021/09/18 06:29:19;;;;;;;7.07;5.17;;;16.10;69.00;;;;;;4995342;28;20812;-49
2021/09/18 06:31:45;;;;;;;6.97;6.27;;;16.20;68.30;;;;;;4995468;28;20195;-48
2021/09/18 06:34:11;;;;;;;14.43;8.10;;;16.40;68.20;;;;;;4994311;28;20214;-47
2021/09/18 06:36:36;;;;;;;7.77;7.07;;;16.50;68.20;;;;;;4995450;28;20201;-46
2021/09/18 06:39:03;;;;;;;6.70;6.07;;;16.70;68.10;;;;;;4993047;28;20563;-48
2021/09/18 06:41:29;;;;;;;6.53;5.93;;;17.00;67.60;;;;;;4994983;28;20293;-46
2021/09/18 06:43:54;;;;;;;7.53;6.60;;;17.20;67.00;;;;;;4994797;28;20878;-46
2021/09/18 06:46:20;;;;;;;7.20;6.60;;;17.40;66.70;;;;;;4995207;28;20550;-50
2021/09/18 06:48:45;;;;;;;8.20;7.30;;;17.50;65.60;;;;;;4993481;28;20297;-49
2021/09/18 06:51:11;;;;;;;6.83;6.30;;;17.60;66.00;;;;;;5007656;28;20194;-46
2021/09/18 06:53:37;;;;;;;6.80;6.20;;;17.90;65.50;;;;;;5013909;28;20823;-47
2021/09/18 06:56:02;;;;;;;10.90;6.77;;;18.20;64.80;;;;;;5013332;28;20185;-48
2021/09/18 06:58:28;;;;;;;6.97;6.40;;;18.30;64.30;;;;;;4994463;28;20782;-46
2021/09/18 07:00:54;;;;;;;7.67;6.90;;;18.60;63.60;;;;;;5009435;28;20213;-47
2021/09/18 07:03:19;;;;;;;6.63;6.13;;;18.80;62.50;;;;;;5013172;28;20674;-49
2021/09/18 07:05:45;;;;;;;6.60;6.10;;;19.00;62.40;;;;;;5013142;28;20198;-46
2021/09/18 07:08:10;;;;;;;7.47;6.87;;;19.20;61.60;;;;;;5005827;28;20277;-46
2021/09/18 07:10:36;;;;;;;7.20;6.67;;;19.20;61.70;;;;;;4994621;28;20856;-46
2021/09/18 07:13:02;;;;;;;7.43;6.73;;;19.30;61.30;;;;;;4993858;28;20662;-46
2021/09/18 07:15:27;;;;;;;6.90;6.40;;;19.30;60.80;;;;;;4994872;28;20190;-47
2021/09/18 07:17:53;;;;;;;7.77;7.07;;;19.40;60.90;;;;;;4994241;28;20263;-46
2021/09/18 07:20:19;;;;;;;7.77;7.17;;;19.30;60.40;;;;;;4994904;28;20236;-47
2021/09/18 07:22:45;;;;;;;7.63;6.93;;;19.10;60.40;;;;;;4993525;28;20217;-48
2021/09/18 07:25:11;;;;;;;7.77;7.17;;;19.00;61.30;;;;;;4994293;28;20674;-47
2021/09/18 07:27:37;;;;;;;8.43;7.50;;;19.00;62.10;;;;;;4994446;28;20202;-46
2021/09/18 07:30:04;;;;;;;7.57;6.97;;;19.20;61.70;;;;;;4992162;28;20560;-47
2021/09/18 07:32:29;;;;;;;7.50;6.90;;;19.60;60.70;;;;;;4994194;28;20430;-46
2021/09/18 07:34:55;;;;;;;7.33;6.73;;;19.90;60.20;;;;;;4993665;28;20422;-49
2021/09/18 07:37:21;;;;;;;7.43;6.83;;;20.10;59.80;;;;;;4994278;28;20202;-50
2021/09/18 07:39:47;;;;;;;8.20;7.50;;;20.20;59.60;;;;;;4993430;28;20226;-46
2021/09/18 07:42:12;;;;;;;8.40;7.67;;;20.60;58.90;;;;;;4994125;28;20194;-46
2021/09/18 07:44:38;;;;;;;7.77;6.97;;;20.50;58.00;;;;;;4992897;28;20462;-46
2021/09/18 07:47:04;;;;;;;8.37;7.77;;;20.40;58.20;;;;;;4993969;28;20290;-46
2021/09/18 07:49:29;;;;;;;9.37;8.30;;;20.50;58.10;;;;;;4993484;28;20642;-49
2021/09/18 07:51:55;;;;;;;7.63;6.93;;;20.70;57.30;;;;;;5012510;28;20190;-47
2021/09/18 07:54:21;;;;;;;7.83;7.23;;;20.70;57.00;;;;;;5012465;28;20193;-46
2021/09/18 07:56:47;;;;;;;7.50;6.90;;;20.60;58.20;;;;;;5005130;28;20430;-47
2021/09/18 07:59:13;;;;;;;8.03;7.27;;;20.70;57.90;;;;;;4994162;28;20493;-46
2021/09/18 08:01:39;;;;;;;8.77;7.87;;;20.30;58.70;;;;;;5013174;28;20520;-48
2021/09/18 08:04:05;;;;;;;8.37;7.67;;;20.60;58.10;;;;;;5012300;28;20431;-46
2021/09/18 08:06:32;;;;;;;8.40;7.70;;;20.70;57.80;;;;;;5013062;28;20618;-46
2021/09/18 08:08:58;;;;;;;8.03;7.27;;;21.10;57.50;;;;;;4997912;28;20197;-47
2021/09/18 08:11:24;;;;;;;10.27;7.43;;;21.30;56.30;;;;;;4993588;28;20801;-46
2021/09/18 08:13:51;;;;;;;7.13;6.60;;;21.50;56.40;;;;;;4992856;28;20436;-47
2021/09/18 08:16:17;;;;;;;7.83;7.13;;;21.70;55.80;;;;;;4993375;28;20427;-47
2021/09/18 08:18:43;;;;;;;7.87;7.27;;;21.90;55.90;;;;;;4992776;28;20898;-47
2021/09/18 08:21:10;;;;;;;7.47;6.83;;;22.10;55.50;;;;;;4993435;28;20497;-48
2021/09/18 08:23:35;;;;;;;7.90;7.17;;;22.30;54.50;;;;;;4990806;28;20563;-48
2021/09/18 08:26:01;;;;;;;7.57;6.80;;;22.30;54.00;;;;;;4993022;28;20433;-48
2021/09/18 08:28:27;;;;;;;7.83;7.23;;;22.40;53.10;;;;;;4992851;28;20191;-48
2021/09/18 08:30:52;;;;;;;6.83;6.30;;;22.40;54.00;;;;;;4993233;28;20243;-46
2021/09/18 08:33:18;;;;;;;7.27;6.67;;;22.60;53.40;;;;;;4992582;28;20194;-46
2021/09/18 08:35:43;;;;;;;7.77;6.43;;;22.80;53.20;;;;;;4992862;28;20206;-47
2021/09/18 08:38:09;;;;;;;10.00;6.70;;;22.80;53.60;;;;;;4992391;28;20205;-46
2021/09/18 08:40:37;;;;;;;7.47;5.53;;;22.90;53.00;;;;;;4993326;28;20296;-47
2021/09/18 08:43:04;;;;;;;7.03;6.43;;;22.90;53.30;;;;;;4991709;28;20577;-47
2021/09/18 08:45:30;;;;;;;7.20;6.10;;;22.90;53.40;;;;;;4993106;28;20425;-48
2021/09/18 08:47:57;;;;;;;6.77;6.27;;;23.00;53.00;;;;;;4992459;28;20437;-47
2021/09/18 08:50:23;;;;;;;6.80;6.17;;;23.20;51.90;;;;;;4997221;28;20833;-47
2021/09/18 08:52:52;;;;;;;5.70;5.20;;;23.30;51.60;;;;;;5011444;28;20436;-48
2021/09/18 08:55:17;;;;;;;6.00;5.50;;;23.50;52.00;;;;;;5012377;28;21767;-46
2021/09/18 08:57:43;;;;;;;6.93;6.00;;;23.60;51.10;;;;;;4996543;28;20469;-47
2021/09/18 09:00:29;;;;;;;5.97;5.50;;;23.70;51.10;;;;;;5001362;28;20587;-47
2021/09/18 09:02:55;;;;;;;6.03;5.53;;;23.90;51.10;;;;;;5011327;28;20194;-48
2021/09/18 09:05:27;;;;;;;6.00;5.50;;;24.00;50.90;;;;;;5012304;28;20426;-48
2021/09/18 09:08:22;;;;;;;6.37;5.83;;;24.20;50.80;;;;;;5005886;28;20797;-46
2021/09/18 09:10:48;;;;;;;7.20;6.20;;;24.40;50.60;;;;;;4991296;28;20446;-47
2021/09/18 09:13:18;;;;;;;6.47;5.87;;;24.50;50.90;;;;;;4991631;28;20592;-47
2021/09/18 09:15:46;;;;;;;6.40;4.90;;;24.60;50.70;;;;;;4991775;28;20426;-50
2021/09/18 09:18:26;;;;;;;5.23;4.83;;;24.80;49.90;;;;;;4991071;28;20433;-48
2021/09/18 09:21:22;;;;;;;5.30;4.80;;;24.90;50.10;;;;;;4992366;28;20491;-46
2021/09/18 09:24:10;;;;;;;6.10;5.60;;;25.10;49.20;;;;;;4991059;28;20937;-47
2021/09/18 09:26:39;;;;;;;5.67;5.17;;;25.30;48.80;;;;;;4992392;28;20438;-52
2021/09/18 09:29:05;;;;;;;5.73;4.97;;;25.30;48.30;;;;;;4991682;28;20425;-51
2021/09/18 09:31:37;;;;;;;5.17;4.77;;;25.50;48.50;;;;;;4992590;28;20589;-52
2021/09/18 09:34:04;;;;;;;5.20;4.80;;;25.60;47.60;;;;;;4998544;28;20436;-52
2021/09/18 09:36:35;;;;;;;5.03;4.63;;;25.80;47.70;;;;;;5011711;28;20520;-49
2021/09/18 09:39:02;;;;;;;5.33;4.93;;;25.90;46.10;;;;;;5011430;28;20422;-51
2021/09/18 09:41:55;;;;;;;5.50;5.10;;;26.00;45.00;;;;;;5011960;28;20503;-47
2021/09/18 09:44:27;;;;;;;5.90;4.50;;;26.10;45.70;;;;;;5003292;28;20441;-51
2021/09/18 09:47:02;;;;;;;3.93;3.73;;;26.40;46.30;;;;;;5011632;28;20436;-49
2021/09/18 09:49:48;;;;;;;4.60;4.20;;;26.50;45.50;;;;;;5011299;28;20436;-53
2021/09/18 09:52:27;;;;;;;4.80;4.40;;;26.60;44.70;;;;;;5011580;28;20852;-51
2021/09/18 09:55:17;;;;;;;5.53;4.60;;;26.70;44.80;;;;;;5010969;28;20452;-49
2021/09/18 09:57:56;;;;;;;4.80;4.37;;;26.80;45.10;;;;;;4995233;28;20481;-47
2021/09/18 10:00:22;;;;;;;5.43;4.93;;;26.40;44.10;;;;;;5002548;28;20976;-49
2021/09/18 10:02:47;;;;;;;4.33;4.03;;;26.50;44.20;;;;;;5010685;28;20432;-47
2021/09/18 10:05:15;;;;;;;3.63;3.40;;;26.70;44.10;;;;;;5011706;28;20248;-49
2021/09/18 10:07:41;;;;;;;3.50;3.20;;;26.90;43.00;;;;;;5007367;28;20236;-53
2021/09/18 10:10:10;;;;;;;4.10;3.80;;;27.00;42.40;;;;;;4989871;28;20430;-48
2021/09/18 10:12:37;;;;;;;3.37;3.17;;;27.20;42.30;;;;;;4991630;28;20827;-48
2021/09/18 10:15:06;;;;;;;3.50;3.30;;;27.40;41.10;;;;;;4991633;28;20778;-50
2021/09/18 10:17:34;;;;;;;3.10;2.80;;;27.70;42.80;;;;;;4992022;28;20444;-51
2021/09/18 10:20:11;;;;;;;5.60;3.13;;;27.90;41.70;;;;;;4990996;28;20508;-51
2021/09/18 10:25:33;;;;;;;4.20;3.60;;;28.40;41.90;;;;;;5015567;28;20520;-48
2021/09/18 10:28:20;;;;;;;4.20;3.90;;;28.50;40.50;;;;;;5014837;28;20445;-47
2021/09/18 10:30:52;;;;;;;4.33;3.17;;;28.70;39.60;;;;;;4995406;28;20484;-48
2021/09/18 10:33:29;;;;;;;3.93;3.47;;;28.70;41.10;;;;;;4994366;28;20989;-47
2021/09/18 10:36:03;;;;;;;3.70;3.50;;;28.70;40.60;;;;;;4993857;28;20429;-47
2021/09/18 10:38:32;;;;;;;3.87;3.57;;;28.80;41.40;;;;;;4994835;28;20429;-48
2021/09/18 10:41:03;;;;;;;4.23;3.83;;;29.00;40.00;;;;;;4995372;28;20485;-46
2021/09/18 10:43:32;;;;;;;3.40;2.83;;;29.20;40.60;;;;;;4994335;28;20457;-47
2021/09/18 10:45:59;;;;;;;6.23;3.67;;;29.40;40.80;;;;;;4995385;28;20434;-47
2021/09/18 10:48:35;;;;;;;4.07;3.57;;;29.50;39.50;;;;;;4994736;28;20414;-49
2021/09/18 10:51:01;;;;;;;3.37;3.07;;;29.50;37.90;;;;;;5006142;28;20976;-48
2021/09/18 10:53:27;;;;;;;4.57;4.17;;;29.50;39.40;;;;;;5013745;28;20429;-47
2021/09/18 10:56:03;;;;;;;9.43;6.03;;;29.80;39.30;;;;;;5014663;28;20201;-47
2021/09/18 10:58:29;;;;;;;5.10;4.00;;;29.70;38.80;;;;;;4994556;28;20287;-49
2021/09/18 11:00:58;;;;;;;4.30;4.00;;;29.80;39.70;;;;;;5010047;28;21049;-48
2021/09/18 11:03:34;;;;;;;4.17;3.87;;;30.00;39.30;;;;;;5011855;28;20198;-48
2021/09/18 11:05:59;;;;;;;3.70;3.50;;;30.00;38.80;;;;;;5014383;28;20498;-47
2021/09/18 11:08:28;;;;;;;3.83;3.63;;;30.00;38.60;;;;;;5003936;28;20544;-51
2021/09/18 11:11:01;;;;;;;4.30;3.90;;;30.00;37.40;;;;;;4994747;28;20203;-48
2021/09/18 11:13:47;;;;;;;4.17;3.87;;;30.20;38.20;;;;;;4993614;28;20481;-51
2021/09/18 11:16:47;;;;;;;3.90;3.60;;;30.10;37.90;;;;;;4994427;28;20441;-49
2021/09/18 11:19:16;;;;;;;3.20;3.00;;;30.20;38.60;;;;;;4993333;28;20453;-47
2021/09/18 11:21:44;;;;;;;3.73;3.43;;;30.50;38.30;;;;;;4994605;28;21321;-48
2021/09/18 11:24:15;;;;;;;3.97;3.37;;;30.60;38.30;;;;;;4993393;28;20496;-51
2021/09/18 11:26:45;;;;;;;2.90;2.70;;;30.60;37.00;;;;;;4994523;28;20437;-47
2021/09/18 11:29:20;;;;;;;2.97;2.77;;;30.50;37.60;;;;;;4998902;28;20448;-48
2021/09/18 11:32:13;;;;;;;3.27;2.90;;;30.50;37.60;;;;;;5013829;28;20791;-48
2021/09/18 11:34:41;;;;;;;3.47;3.17;;;30.60;36.80;;;;;;5012537;28;20441;-49
2021/09/18 11:37:11;;;;;;;3.50;3.30;;;30.90;36.10;;;;;;5013599;28;20476;-48
2021/09/18 11:39:38;;;;;;;3.20;3.00;;;30.90;35.90;;;;;;5013221;28;20840;-49
2021/09/18 11:42:23;;;;;;;3.90;3.03;;;30.90;36.40;;;;;;5013242;28;20808;-47
2021/09/18 11:45:10;;;;;;;3.80;3.00;;;30.90;36.10;;;;;;5012856;28;20437;-47
2021/09/18 11:47:42;;;;;;;2.80;2.60;;;31.00;35.90;;;;;;5013273;28;20475;-48
2021/09/18 11:50:26;;;;;;;3.33;3.13;;;31.00;36.20;;;;;;5013332;28;20429;-48
2021/09/18 11:52:58;;;;;;;2.77;2.57;;;31.00;34.30;;;;;;5012197;28;20440;-47
2021/09/18 11:55:27;;;;;;;6.67;2.80;;;31.00;35.70;;;;;;5011905;28;20905;-47
2021/09/18 11:58:16;;;;;;;3.90;3.60;;;31.30;35.70;;;;;;4997489;28;20516;-47
2021/09/18 12:00:47;;;;;;;3.10;2.90;;;31.40;35.40;;;;;;5006720;28;20492;-47
2021/09/18 12:03:13;;;;;;;3.37;3.07;;;31.60;35.30;;;;;;4992696;28;20426;-47
2021/09/18 12:05:39;;;;;;;3.30;3.03;;;31.90;34.00;;;;;;4993641;28;20422;-47
2021/09/18 12:08:07;;;;;;;3.50;3.20;;;31.90;33.60;;;;;;5003069;28;20442;-48
2021/09/18 12:10:33;;;;;;;3.70;3.50;;;31.90;35.10;;;;;;4993501;28;20437;-48
2021/09/18 12:13:01;;;;;;;3.53;3.23;;;31.90;34.70;;;;;;4992646;28;20930;-47
2021/09/18 12:15:41;;;;;;;3.80;3.40;;;31.90;35.30;;;;;;4993593;28;20206;-48
2021/09/18 12:18:19;;;;;;;4.13;3.30;;;31.90;33.60;;;;;;4992853;28;20440;-47
2021/09/18 12:20:45;;;;;;;3.67;3.37;;;32.00;34.20;;;;;;4993384;28;20604;-48
2021/09/18 12:23:11;;;;;;;3.00;2.80;;;31.90;34.90;;;;;;4990635;28;20477;-49
2021/09/18 12:25:37;;;;;;;6.17;2.67;;;30.60;34.10;;;;;;4993267;28;20426;-47
2021/09/18 12:28:03;;;;;;;3.43;3.13;;;30.70;36.40;;;;;;4992779;28;20190;-49
2021/09/18 12:30:37;;;;;;;3.90;3.23;;;31.10;36.70;;;;;;4993324;28;20203;-48
2021/09/18 12:33:12;;;;;;;3.57;3.37;;;31.40;35.70;;;;;;4992435;28;20419;-48
2021/09/18 12:35:43;;;;;;;3.67;3.47;;;31.70;35.80;;;;;;5000236;28;20534;-47
2021/09/18 12:38:10;;;;;;;3.53;3.30;;;31.80;33.90;;;;;;5012231;28;20563;-51
2021/09/18 12:40:42;;;;;;;3.17;2.97;;;31.80;33.10;;;;;;5012680;28;20833;-48
2021/09/18 12:43:20;;;;;;;3.10;2.90;;;31.60;33.60;;;;;;5011588;28;20524;-48
2021/09/18 12:45:48;;;;;;;3.50;3.30;;;31.60;34.40;;;;;;5011909;28;20447;-48
2021/09/18 12:48:17;;;;;;;3.67;3.37;;;31.70;33.40;;;;;;5010356;28;20432;-47
2021/09/18 12:51:06;;;;;;;4.00;3.20;;;31.70;33.30;;;;;;5012600;28;20429;-48
2021/09/18 12:53:47;;;;;;;4.90;3.13;;;31.60;32.80;;;;;;4991807;28;20794;-48